Time;durP1;ratioP1;P1;durP2;ratioP2;P2;SDS_P1;SDS_P2;PMS_P1;PMS_P2;Temp;Humidity;BMP_temperature;BMP_pressure;BME280_temperature;BME280_humidity;BME280_pressure;Samples;Min_cycle;Max_cycle;Signal;HPM_P1;HPM_P2
2021/08/06 00:01:49;;;;;;;4.30;1.60;;;;;;;;;;4986270;28;20456;-92
2021/08/06 00:04:16;;;;;;;6.95;2.42;;;;;;;;;;4988875;28;20817;-90
2021/08/06 00:06:47;;;;;;;7.17;2.40;;;;;;;;;;4989236;28;20404;-90
2021/08/06 00:09:14;;;;;;;10.23;3.00;;;;;;;;;;4982833;28;20968;-91
2021/08/06 00:11:42;;;;;;;3.15;1.70;;;;;;;;;;4986083;28;20420;-91
2021/08/06 00:14:09;;;;;;;6.32;2.20;;;;;;;;;;4978703;28;20415;-91
2021/08/06 00:16:36;;;;;;;3.85;2.00;;;;;;;;;;4986134;28;20416;-92
2021/08/06 00:19:03;;;;;;;5.38;1.80;;;;;;;;;;4985170;28;20429;-91
2021/08/06 00:21:30;;;;;;;4.38;1.75;;;;;;;;;;4987404;28;20922;-91
2021/08/06 00:24:00;;;;;;;3.95;1.92;;;;;;;;;;4987758;28;20952;-91
2021/08/06 00:26:27;;;;;;;3.42;2.08;;;;;;;;;;4985528;28;20413;-93
2021/08/06 00:28:55;;;;;;;3.35;1.80;;;;;;;;;;4984934;28;20505;-92
2021/08/06 00:31:21;;;;;;;3.20;1.90;;;;;;;;;;4983154;28;20408;-94
2021/08/06 00:33:50;;;;;;;2.28;1.70;;;;;;;;;;4985000;28;20412;-94
2021/08/06 00:36:17;;;;;;;3.50;1.60;;;;;;;;;;4988225;28;20415;-95
2021/08/06 00:38:44;;;;;;;2.85;1.50;;;;;;;;;;4981839;28;20435;-94
2021/08/06 00:41:13;;;;;;;3.47;1.58;;;;;;;;;;4985753;28;20421;-94
2021/08/06 00:43:40;;;;;;;1.98;1.50;;;;;;;;;;4965387;28;20901;-96
2021/08/06 00:46:07;;;;;;;2.67;1.50;;;;;;;;;;4981929;28;20417;-96
2021/08/06 00:48:34;;;;;;;2.40;1.38;;;;;;;;;;4985121;28;20425;-96
2021/08/06 00:51:02;;;;;;;1.40;1.30;;;;;;;;;;4988450;28;20411;-96
2021/08/06 00:53:29;;;;;;;1.58;1.48;;;;;;;;;;4985509;28;20412;-96
2021/08/06 00:55:56;;;;;;;1.45;1.20;;;;;;;;;;4986842;28;20816;-96
2021/08/06 00:58:24;;;;;;;2.37;1.20;;;;;;;;;;4983173;28;20422;-95
2021/08/06 01:00:51;;;;;;;1.42;1.33;;;;;;;;;;4986564;28;20428;-95
2021/08/06 01:03:22;;;;;;;1.95;1.10;;;;;;;;;;4985360;28;20413;-95
2021/08/06 01:05:56;;;;;;;3.30;1.63;;;;;;;;;;4967872;28;20409;-95
2021/08/06 01:08:30;;;;;;;1.90;1.45;;;;;;;;;;4983224;28;20424;-95
2021/08/06 01:10:59;;;;;;;2.05;1.48;;;;;;;;;;4986421;28;20589;-95
2021/08/06 01:13:32;;;;;;;1.45;1.17;;;;;;;;;;4984861;28;20421;-94
2021/08/06 01:16:01;;;;;;;3.07;1.30;;;;;;;;;;4983478;28;20412;-94
2021/08/06 01:18:32;;;;;;;3.10;1.42;;;;;;;;;;4986902;28;20432;-93
2021/08/06 01:21:04;;;;;;;1.55;1.40;;;;;;;;;;4981982;28;20845;-95
2021/08/06 01:23:35;;;;;;;2.78;1.65;;;;;;;;;;4986326;28;20967;-94
2021/08/06 01:26:07;;;;;;;3.10;1.23;;;;;;;;;;4984341;28;20414;-94
2021/08/06 01:28:38;;;;;;;1.70;1.17;;;;;;;;;;4986698;28;20915;-94
2021/08/06 01:31:06;;;;;;;2.40;1.45;;;;;;;;;;4977833;28;20422;-93
2021/08/06 01:33:33;;;;;;;4.00;1.30;;;;;;;;;;4965520;28;20406;-94
2021/08/06 01:36:00;;;;;;;2.15;1.52;;;;;;;;;;4986316;28;20404;-94
2021/08/06 01:38:27;;;;;;;1.50;1.40;;;;;;;;;;4986720;28;20417;-94
2021/08/06 01:41:15;;;;;;;2.57;1.70;;;;;;;;;;4983568;28;20438;-94
2021/08/06 01:43:47;;;;;;;2.30;1.27;;;;;;;;;;4980968;28;20645;-94
2021/08/06 01:46:19;;;;;;;2.88;1.60;;;;;;;;;;4977160;28;20400;-93
2021/08/06 01:48:50;;;;;;;2.95;1.55;;;;;;;;;;4981099;28;20734;-94
2021/08/06 01:51:19;;;;;;;2.13;1.60;;;;;;;;;;4986880;28;20416;-93
2021/08/06 01:53:49;;;;;;;2.92;1.90;;;;;;;;;;4983858;28;20413;-92
2021/08/06 01:56:19;;;;;;;2.05;1.83;;;;;;;;;;4982448;28;20818;-93
2021/08/06 01:58:48;;;;;;;2.95;1.83;;;;;;;;;;4985399;28;20456;-93
2021/08/06 02:01:15;;;;;;;2.75;2.00;;;;;;;;;;4975784;28;20418;-94
2021/08/06 02:03:42;;;;;;;3.63;2.33;;;;;;;;;;4962099;28;20804;-94
2021/08/06 02:06:10;;;;;;;3.22;2.20;;;;;;;;;;4958848;28;20420;-94
2021/08/06 02:08:38;;;;;;;3.97;2.20;;;;;;;;;;4959077;28;20766;-93
2021/08/06 02:11:05;;;;;;;2.47;2.22;;;;;;;;;;4961875;28;20425;-93
2021/08/06 02:13:35;;;;;;;3.40;2.38;;;;;;;;;;4959353;28;20423;-93
2021/08/06 02:16:03;;;;;;;3.63;2.20;;;;;;;;;;4958803;28;20417;-93
2021/08/06 02:18:32;;;;;;;3.00;2.20;;;;;;;;;;4962597;28;20418;-94
2021/08/06 02:21:02;;;;;;;2.92;2.03;;;;;;;;;;4960698;28;20419;-93
2021/08/06 02:23:30;;;;;;;2.20;2.00;;;;;;;;;;4959819;28;20430;-93
2021/08/06 02:25:59;;;;;;;2.20;2.00;;;;;;;;;;4960654;28;20412;-93
2021/08/06 02:28:27;;;;;;;2.60;2.10;;;;;;;;;;4959957;28;20426;-94
2021/08/06 02:30:56;;;;;;;2.42;2.20;;;;;;;;;;4959776;28;20900;-93
2021/08/06 02:33:23;;;;;;;3.10;2.23;;;;;;;;;;4960354;28;20430;-93
2021/08/06 02:35:50;;;;;;;3.40;2.50;;;;;;;;;;4958169;28;20421;-94
2021/08/06 02:38:22;;;;;;;2.97;2.42;;;;;;;;;;4959017;28;20881;-93
2021/08/06 02:40:50;;;;;;;3.05;2.60;;;;;;;;;;4960691;28;20418;-93
2021/08/06 02:43:17;;;;;;;4.50;2.60;;;;;;;;;;4959164;28;20952;-93
2021/08/06 02:45:45;;;;;;;4.20;2.60;;;;;;;;;;4961778;28;20597;-93
2021/08/06 02:48:14;;;;;;;3.45;2.70;;;;;;;;;;4957354;28;20834;-93
2021/08/06 02:50:41;;;;;;;4.40;2.88;;;;;;;;;;4958072;28;20412;-92
2021/08/06 02:53:08;;;;;;;3.75;3.03;;;;;;;;;;4957560;28;20427;-93
2021/08/06 02:55:35;;;;;;;3.60;3.03;;;;;;;;;;4959860;28;20788;-92
2021/08/06 02:58:03;;;;;;;3.65;2.80;;;;;;;;;;4969027;28;20752;-93
2021/08/06 03:00:30;;;;;;;3.97;3.13;;;;;;;;;;4968894;28;20430;-92
2021/08/06 03:02:57;;;;;;;3.75;3.30;;;;;;;;;;4968858;28;20421;-93
2021/08/06 03:05:25;;;;;;;4.03;3.10;;;;;;;;;;4972297;28;20891;-93
2021/08/06 03:07:53;;;;;;;3.75;3.33;;;;;;;;;;4977714;28;20411;-94
2021/08/06 03:10:21;;;;;;;3.97;3.53;;;;;;;;;;4983465;28;20418;-92
2021/08/06 03:12:49;;;;;;;4.97;3.47;;;;;;;;;;4987413;28;20398;-93
2021/08/06 03:15:17;;;;;;;4.55;3.50;;;;;;;;;;4975037;28;20909;-92
2021/08/06 03:17:44;;;;;;;4.50;3.50;;;;;;;;;;4969047;28;20418;-93
2021/08/06 03:20:14;;;;;;;4.18;3.58;;;;;;;;;;4968723;28;20464;-93
2021/08/06 03:22:43;;;;;;;4.30;3.35;;;;;;;;;;4969342;28;20410;-93
2021/08/06 03:25:11;;;;;;;5.57;3.60;;;;;;;;;;4969297;28;20414;-93
2021/08/06 03:27:38;;;;;;;4.78;3.67;;;;;;;;;;4969033;28;20811;-93
2021/08/06 03:30:08;;;;;;;6.03;3.65;;;;;;;;;;4969208;28;20481;-93
2021/08/06 03:32:35;;;;;;;4.53;3.28;;;;;;;;;;4969091;28;20422;-93
2021/08/06 03:35:01;;;;;;;4.35;3.67;;;;;;;;;;4969180;28;20843;-94
2021/08/06 03:37:28;;;;;;;4.45;3.33;;;;;;;;;;4969115;28;20418;-93
2021/08/06 03:39:57;;;;;;;4.25;3.38;;;;;;;;;;4968205;28;20925;-93
2021/08/06 03:42:24;;;;;;;4.28;3.72;;;;;;;;;;4951513;28;20407;-93
2021/08/06 03:44:51;;;;;;;4.90;3.72;;;;;;;;;;4968545;28;20411;-93
2021/08/06 03:47:18;;;;;;;6.20;3.70;;;;;;;;;;4968887;28;20426;-93
2021/08/06 03:49:45;;;;;;;4.20;3.60;;;;;;;;;;4951719;28;20498;-93
2021/08/06 03:52:12;;;;;;;4.95;3.80;;;;;;;;;;4968608;28;20891;-93
2021/08/06 03:54:39;;;;;;;3.85;3.33;;;;;;;;;;4968772;28;20406;-93
2021/08/06 03:57:08;;;;;;;5.53;3.60;;;;;;;;;;4968446;28;20918;-93
2021/08/06 03:59:35;;;;;;;4.20;3.58;;;;;;;;;;4968976;28;20927;-93
2021/08/06 04:02:02;;;;;;;4.70;3.60;;;;;;;;;;4951145;28;20410;-93
2021/08/06 04:04:29;;;;;;;5.50;4.03;;;;;;;;;;4965502;28;20431;-93
2021/08/06 04:06:56;;;;;;;5.17;4.10;;;;;;;;;;4967174;28;20415;-92
2021/08/06 04:09:22;;;;;;;6.47;5.07;;;;;;;;;;4971602;28;20412;-93
2021/08/06 04:11:50;;;;;;;4.57;3.80;;;;;;;;;;4975898;28;20416;-93
2021/08/06 04:14:18;;;;;;;5.28;3.95;;;;;;;;;;4974826;28;20404;-92
2021/08/06 04:16:47;;;;;;;4.88;4.20;;;;;;;;;;4975924;28;20409;-93
2021/08/06 04:19:14;;;;;;;4.65;3.88;;;;;;;;;;4960421;28;20418;-92
2021/08/06 04:21:41;;;;;;;6.55;4.85;;;;;;;;;;4974093;28;20485;-92
2021/08/06 04:24:08;;;;;;;6.85;4.95;;;;;;;;;;4975233;28;20413;-92
2021/08/06 04:26:35;;;;;;;6.78;4.88;;;;;;;;;;4976880;28;20418;-93
2021/08/06 04:29:02;;;;;;;4.77;4.20;;;;;;;;;;4978552;28;20483;-93
2021/08/06 04:31:31;;;;;;;5.72;4.00;;;;;;;;;;4977049;28;20412;-93
2021/08/06 04:33:57;;;;;;;5.03;4.30;;;;;;;;;;4971067;28;20418;-92
2021/08/06 04:36:24;;;;;;;5.10;4.40;;;;;;;;;;4978983;28;20424;-93
2021/08/06 04:38:51;;;;;;;7.85;4.65;;;;;;;;;;4977021;28;20792;-93
2021/08/06 04:41:18;;;;;;;7.03;6.10;;;;;;;;;;4977752;28;20423;-93
2021/08/06 04:43:45;;;;;;;7.35;6.18;;;;;;;;;;4977089;28;20422;-92
2021/08/06 04:46:12;;;;;;;5.70;4.78;;;;;;;;;;4976044;28;20406;-93
2021/08/06 04:48:40;;;;;;;6.60;5.10;;;;;;;;;;4978212;28;20403;-93
2021/08/06 04:51:07;;;;;;;6.25;4.70;;;;;;;;;;4973711;28;20422;-92
2021/08/06 04:53:34;;;;;;;5.13;4.30;;;;;;;;;;4976275;28;20418;-92
2021/08/06 04:56:02;;;;;;;5.20;4.70;;;;;;;;;;4974929;28;20467;-93
2021/08/06 04:58:28;;;;;;;5.60;4.85;;;;;;;;;;4974620;28;20970;-92
2021/08/06 05:00:55;;;;;;;5.68;5.00;;;;;;;;;;4974947;28;20755;-93
2021/08/06 05:03:22;;;;;;;5.70;5.10;;;;;;;;;;4978409;28;21473;-92
2021/08/06 05:05:51;;;;;;;5.20;4.55;;;;;;;;;;4976422;28;20819;-94
2021/08/06 05:08:18;;;;;;;6.60;4.60;;;;;;;;;;4977679;28;20421;-93
2021/08/06 05:10:44;;;;;;;6.60;5.00;;;;;;;;;;4960951;28;20410;-94
2021/08/06 05:13:11;;;;;;;7.88;5.10;;;;;;;;;;4976877;28;20410;-93
2021/08/06 05:15:38;;;;;;;6.03;5.35;;;;;;;;;;4975062;28;20410;-94
2021/08/06 05:18:05;;;;;;;8.18;5.90;;;;;;;;;;4977435;28;20472;-93
2021/08/06 05:20:32;;;;;;;6.30;5.55;;;;;;;;;;4975629;28;21276;-93
2021/08/06 05:23:01;;;;;;;9.50;5.38;;;;;;;;;;4969328;28;20818;-93
2021/08/06 05:25:28;;;;;;;5.80;4.93;;;;;;;;;;4978221;28;20406;-92
2021/08/06 05:27:55;;;;;;;5.43;4.93;;;;;;;;;;4975640;28;20412;-93
2021/08/06 05:30:22;;;;;;;8.98;5.05;;;;;;;;;;4975083;28;20835;-95
2021/08/06 05:32:50;;;;;;;5.55;4.68;;;;;;;;;;4975761;28;20506;-93
2021/08/06 05:35:17;;;;;;;8.65;5.47;;;;;;;;;;4976285;28;20416;-93
2021/08/06 05:37:44;;;;;;;7.05;4.07;;;;;;;;;;4975582;28;20560;-93
2021/08/06 05:40:13;;;;;;;5.60;4.53;;;;;;;;;;4975726;28;20470;-92
2021/08/06 05:42:41;;;;;;;7.18;4.20;;;;;;;;;;4974474;28;20426;-93
2021/08/06 05:45:09;;;;;;;6.30;4.07;;;;;;;;;;4979051;28;20417;-93
2021/08/06 05:47:49;;;;;;;5.28;3.92;;;;;;;;;;4974707;28;20887;-93
2021/08/06 05:50:16;;;;;;;5.95;3.50;;;;;;;;;;4974626;28;20920;-93
2021/08/06 05:52:43;;;;;;;5.30;3.53;;;;;;;;;;4975618;28;20757;-92
2021/08/06 05:55:11;;;;;;;4.03;3.53;;;;;;;;;;4977351;28;20677;-93
2021/08/06 05:57:40;;;;;;;4.97;3.72;;;;;;;;;;4970043;28;20402;-93
2021/08/06 06:00:09;;;;;;;8.30;4.10;;;;;;;;;;4971943;28;20442;-93
2021/08/06 06:02:36;;;;;;;5.95;3.70;;;;;;;;;;4973424;28;20896;-92
2021/08/06 06:05:04;;;;;;;6.45;4.18;;;;;;;;;;4972990;28;20410;-92
2021/08/06 06:07:30;;;;;;;5.97;4.30;;;;;;;;;;4971973;28;20813;-92
2021/08/06 06:09:57;;;;;;;6.77;5.20;;;;;;;;;;4977344;28;20424;-92
2021/08/06 06:12:24;;;;;;;8.80;5.37;;;;;;;;;;4974662;28;20416;-92
2021/08/06 06:14:53;;;;;;;5.90;4.90;;;;;;;;;;4974138;28;20417;-92
2021/08/06 06:17:19;;;;;;;8.32;5.03;;;;;;;;;;4974370;28;20410;-91
2021/08/06 06:19:46;;;;;;;9.07;4.47;;;;;;;;;;4973269;28;20421;-93
2021/08/06 06:22:13;;;;;;;7.80;4.22;;;;;;;;;;4974239;28;20423;-92
2021/08/06 06:24:40;;;;;;;7.10;4.82;;;;;;;;;;4973097;28;20454;-93
2021/08/06 06:27:09;;;;;;;6.80;5.20;;;;;;;;;;4970319;28;20411;-93
2021/08/06 06:29:36;;;;;;;9.00;6.25;;;;;;;;;;4972329;28;20441;-92
2021/08/06 06:32:05;;;;;;;6.53;5.38;;;;;;;;;;4971474;28;20402;-93
2021/08/06 06:34:32;;;;;;;6.38;5.75;;;;;;;;;;4971836;28;20406;-92
2021/08/06 06:36:59;;;;;;;6.70;4.95;;;;;;;;;;4971849;28;20433;-92
2021/08/06 06:39:26;;;;;;;5.13;4.53;;;;;;;;;;4975417;28;20444;-91
2021/08/06 06:41:53;;;;;;;7.13;4.22;;;;;;;;;;4974128;28;20414;-92
2021/08/06 06:44:20;;;;;;;4.07;3.53;;;;;;;;;;4973476;28;20413;-91
2021/08/06 06:46:46;;;;;;;5.88;4.30;;;;;;;;;;4972453;28;20610;-91
2021/08/06 06:49:15;;;;;;;5.13;4.40;;;;;;;;;;4972870;28;20934;-91
2021/08/06 06:51:42;;;;;;;5.95;4.00;;;;;;;;;;4972543;28;20414;-92
2021/08/06 06:54:09;;;;;;;5.57;3.92;;;;;;;;;;4972528;28;20411;-91
2021/08/06 06:56:36;;;;;;;3.90;3.10;;;;;;;;;;4971868;28;20934;-92
2021/08/06 06:59:03;;;;;;;3.50;3.20;;;;;;;;;;4971442;28;20418;-92
2021/08/06 07:01:30;;;;;;;5.03;3.00;;;;;;;;;;4972734;28;20491;-91
2021/08/06 07:03:57;;;;;;;4.50;2.73;;;;;;;;;;4971264;28;20412;-91
2021/08/06 07:06:27;;;;;;;2.67;2.47;;;;;;;;;;4975064;28;20428;-92
2021/08/06 07:08:54;;;;;;;2.42;2.08;;;;;;;;;;4974297;28;20417;-91
2021/08/06 07:11:21;;;;;;;3.15;2.20;;;;;;;;;;4973816;28;20440;-91
2021/08/06 07:13:48;;;;;;;3.97;2.50;;;;;;;;;;4959145;28;20465;-91
2021/08/06 07:16:16;;;;;;;2.60;2.33;;;;;;;;;;4975669;28;20446;-92
2021/08/06 07:18:43;;;;;;;3.80;2.40;;;;;;;;;;4972816;28;20413;-92
2021/08/06 07:21:12;;;;;;;2.90;2.38;;;;;;;;;;4957176;28;20481;-92
2021/08/06 07:23:40;;;;;;;3.03;2.00;;;;;;;;;;4968650;28;20415;-91
2021/08/06 07:26:07;;;;;;;3.13;2.40;;;;;;;;;;4974143;28;20498;-91
2021/08/06 07:28:35;;;;;;;2.70;2.50;;;;;;;;;;4971366;28;20418;-91
2021/08/06 07:31:03;;;;;;;3.92;2.50;;;;;;;;;;4969779;28;20548;-91
2021/08/06 07:33:30;;;;;;;3.42;2.65;;;;;;;;;;4971863;28;20755;-91
2021/08/06 07:35:57;;;;;;;3.03;2.50;;;;;;;;;;4971338;28;20425;-91
2021/08/06 07:38:24;;;;;;;2.72;2.35;;;;;;;;;;4971863;28;20427;-92
2021/08/06 07:40:54;;;;;;;2.75;2.08;;;;;;;;;;4970551;28;20422;-92
2021/08/06 07:43:21;;;;;;;2.33;1.67;;;;;;;;;;4971910;28;20492;-91
2021/08/06 07:45:48;;;;;;;3.47;1.73;;;;;;;;;;4971050;28;20425;-91
2021/08/06 07:48:15;;;;;;;2.60;2.30;;;;;;;;;;4971386;28;20418;-91
2021/08/06 07:50:42;;;;;;;3.60;1.98;;;;;;;;;;4970610;28;20419;-91
2021/08/06 07:53:09;;;;;;;3.25;2.20;;;;;;;;;;4970958;28;20429;-91
2021/08/06 07:55:36;;;;;;;3.50;2.20;;;;;;;;;;4969054;28;20418;-90
2021/08/06 07:58:04;;;;;;;2.22;1.95;;;;;;;;;;4970199;28;20441;-91
2021/08/06 08:00:31;;;;;;;2.77;1.80;;;;;;;;;;4973380;28;20429;-91
2021/08/06 08:02:58;;;;;;;1.97;1.73;;;;;;;;;;4975094;28;20420;-91
2021/08/06 08:05:25;;;;;;;2.70;1.70;;;;;;;;;;4973957;28;20449;-91
2021/08/06 08:07:52;;;;;;;4.03;1.90;;;;;;;;;;4976532;28;20784;-91
2021/08/06 08:10:20;;;;;;;2.30;1.80;;;;;;;;;;4977638;28;20411;-91
2021/08/06 08:12:46;;;;;;;2.15;1.70;;;;;;;;;;4974532;28;20458;-91
2021/08/06 08:15:15;;;;;;;3.08;1.95;;;;;;;;;;4974056;28;20410;-91
2021/08/06 08:17:42;;;;;;;1.98;1.77;;;;;;;;;;4974596;28;20504;-91
2021/08/06 08:20:11;;;;;;;2.17;1.77;;;;;;;;;;4977787;28;20422;-90
2021/08/06 08:22:39;;;;;;;2.22;1.80;;;;;;;;;;4978580;28;20407;-90
2021/08/06 08:25:07;;;;;;;2.70;1.70;;;;;;;;;;4973220;28;20407;-91
2021/08/06 08:27:35;;;;;;;1.98;1.33;;;;;;;;;;4972519;28;20424;-91
2021/08/06 08:30:03;;;;;;;2.17;1.52;;;;;;;;;;4973641;28;20404;-91
2021/08/06 08:32:31;;;;;;;1.85;1.67;;;;;;;;;;4973930;28;20436;-91
2021/08/06 08:34:58;;;;;;;2.45;1.40;;;;;;;;;;4973083;28;20953;-91
2021/08/06 08:37:26;;;;;;;1.75;1.63;;;;;;;;;;4973717;28;20422;-91
2021/08/06 08:39:52;;;;;;;2.65;1.58;;;;;;;;;;4974896;28;20403;-90
2021/08/06 08:42:21;;;;;;;3.38;1.92;;;;;;;;;;4974682;28;20440;-91
2021/08/06 08:44:48;;;;;;;2.90;1.60;;;;;;;;;;4973412;28;20425;-92
2021/08/06 08:47:21;;;;;;;2.20;1.60;;;;;;;;;;4973360;28;20422;-92
2021/08/06 08:49:51;;;;;;;1.95;1.20;;;;;;;;;;4973262;28;20990;-91
2021/08/06 08:52:18;;;;;;;1.80;1.00;;;;;;;;;;4973711;28;20538;-91
2021/08/06 08:54:46;;;;;;;1.70;1.20;;;;;;;;;;4972974;28;20882;-92
2021/08/06 08:57:19;;;;;;;1.80;1.10;;;;;;;;;;4973105;28;20895;-91
2021/08/06 08:59:46;;;;;;;1.15;1.08;;;;;;;;;;4972680;28;20446;-91
2021/08/06 09:02:13;;;;;;;1.85;1.10;;;;;;;;;;4973057;28;20422;-91
2021/08/06 09:04:40;;;;;;;1.00;1.00;;;;;;;;;;4975664;28;20438;-91
2021/08/06 09:07:09;;;;;;;1.13;0.90;;;;;;;;;;4972569;28;20426;-92
2021/08/06 09:09:36;;;;;;;1.55;1.10;;;;;;;;;;4972171;28;20406;-90
2021/08/06 09:12:08;;;;;;;1.70;1.13;;;;;;;;;;4972433;28;20414;-91
2021/08/06 09:14:38;;;;;;;3.83;1.17;;;;;;;;;;4972256;28;20410;-92
2021/08/06 09:17:07;;;;;;;2.40;1.23;;;;;;;;;;4971635;28;20422;-92
2021/08/06 09:19:37;;;;;;;2.65;1.13;;;;;;;;;;4971899;28;20406;-91
2021/08/06 09:22:19;;;;;;;1.45;1.20;;;;;;;;;;4972094;28;20445;-92
2021/08/06 09:25:08;;;;;;;0.95;0.80;;;;;;;;;;4972582;28;20501;-92
2021/08/06 09:27:37;;;;;;;1.30;1.05;;;;;;;;;;4957444;28;20772;-92
2021/08/06 09:30:08;;;;;;;1.33;0.90;;;;;;;;;;4968132;28;20502;-92
2021/08/06 09:32:52;;;;;;;2.20;1.20;;;;;;;;;;4954495;28;20891;-91
2021/08/06 09:35:21;;;;;;;1.00;0.90;;;;;;;;;;4957003;28;20406;-92
2021/08/06 09:37:49;;;;;;;1.58;1.08;;;;;;;;;;4971856;28;20414;-91
2021/08/06 09:40:19;;;;;;;1.50;1.05;;;;;;;;;;4972080;28;20417;-92
2021/08/06 09:42:52;;;;;;;1.48;1.00;;;;;;;;;;4971853;28;20430;-92
2021/08/06 09:45:21;;;;;;;2.38;1.13;;;;;;;;;;4972102;28;20419;-92
2021/08/06 09:47:55;;;;;;;1.75;0.88;;;;;;;;;;4971295;28;20414;-92
2021/08/06 09:50:23;;;;;;;2.10;1.00;;;;;;;;;;4971505;28;20425;-92
2021/08/06 09:52:54;;;;;;;2.80;1.10;;;;;;;;;;4971402;28;20418;-92
2021/08/06 09:55:30;;;;;;;1.67;0.90;;;;;;;;;;4971588;28;20413;-92
2021/08/06 09:57:58;;;;;;;1.52;1.08;;;;;;;;;;4971018;28;20827;-92
2021/08/06 10:00:27;;;;;;;1.48;1.10;;;;;;;;;;4974233;28;20919;-92
2021/08/06 10:02:55;;;;;;;3.97;1.30;;;;;;;;;;4970592;28;20472;-91
2021/08/06 10:05:24;;;;;;;2.38;1.10;;;;;;;;;;4974262;28;20419;-92
2021/08/06 10:07:54;;;;;;;2.42;1.10;;;;;;;;;;4970702;28;20422;-92
2021/08/06 10:10:23;;;;;;;2.65;1.27;;;;;;;;;;4953523;28;20407;-92
2021/08/06 10:12:51;;;;;;;4.10;1.20;;;;;;;;;;4970791;28;20417;-92
2021/08/06 10:15:19;;;;;;;2.70;1.47;;;;;;;;;;4970769;28;20787;-92
2021/08/06 10:17:48;;;;;;;1.60;1.13;;;;;;;;;;4970467;28;20566;-92
2021/08/06 10:20:17;;;;;;;2.23;1.20;;;;;;;;;;4970430;28;20413;-91
2021/08/06 10:22:44;;;;;;;2.45;1.05;;;;;;;;;;4971979;28;20431;-92
2021/08/06 10:25:15;;;;;;;2.08;1.30;;;;;;;;;;4970831;28;20834;-92
2021/08/06 10:27:43;;;;;;;2.00;1.20;;;;;;;;;;4950282;28;20406;-92
2021/08/06 10:30:14;;;;;;;1.70;1.10;;;;;;;;;;4966102;28;20417;-92
2021/08/06 10:32:41;;;;;;;4.75;1.40;;;;;;;;;;4966817;28;20409;-92
2021/08/06 10:35:19;;;;;;;2.17;1.42;;;;;;;;;;4969977;28;20945;-92
2021/08/06 10:37:57;;;;;;;1.50;1.20;;;;;;;;;;4967117;28;20427;-92
2021/08/06 10:41:20;;;;;;;2.13;1.40;;;;;;;;;;4969959;28;20414;-92
2021/08/06 10:44:04;;;;;;;3.55;1.40;;;;;;;;;;4973110;28;20830;-92
2021/08/06 10:46:58;;;;;;;2.22;1.60;;;;;;;;;;4970070;28;20451;-92
2021/08/06 10:49:26;;;;;;;3.40;1.63;;;;;;;;;;4970134;28;20417;-90
2021/08/06 10:52:13;;;;;;;2.33;1.80;;;;;;;;;;4969380;28;20783;-92
2021/08/06 10:54:40;;;;;;;3.45;1.98;;;;;;;;;;4966039;28;20418;-92
2021/08/06 10:57:17;;;;;;;2.55;1.85;;;;;;;;;;4969790;28;20499;-91
2021/08/06 10:59:47;;;;;;;2.25;1.60;;;;;;;;;;4989101;28;20424;-92
2021/08/06 11:02:43;;;;;;;3.57;1.70;;;;;;;;;;4987756;28;20428;-91
2021/08/06 11:05:42;;;;;;;2.20;1.60;;;;;;;;;;4988744;28;20664;-91
2021/08/06 11:08:54;;;;;;;2.75;1.55;;;;;;;;;;4988526;28;20428;-92
2021/08/06 11:11:51;;;;;;;1.83;1.52;;;;;;;;;;4986905;28;20409;-92
2021/08/06 11:14:39;;;;;;;2.00;1.48;;;;;;;;;;4986317;28;20906;-92
2021/08/06 11:17:09;;;;;;;2.45;1.58;;;;;;;;;;4991675;28;20419;-92
2021/08/06 11:19:39;;;;;;;2.08;1.40;;;;;;;;;;4988189;28;20983;-91
2021/08/06 11:23:09;;;;;;;1.77;1.63;;;;;;;;;;4987792;28;20964;-92
2021/08/06 11:25:37;;;;;;;2.40;1.50;;;;;;;;;;4971339;28;20476;-92
2021/08/06 11:28:04;;;;;;;1.77;1.67;;;;;;;;;;4988433;28;20919;-91
2021/08/06 11:30:34;;;;;;;5.70;1.63;;;;;;;;;;4992558;28;20419;-92
2021/08/06 11:33:04;;;;;;;2.40;1.65;;;;;;;;;;4988298;28;20501;-92
2021/08/06 11:35:33;;;;;;;1.92;1.50;;;;;;;;;;4995572;28;20410;-91
2021/08/06 11:38:02;;;;;;;2.03;1.65;;;;;;;;;;4992132;28;20704;-91
2021/08/06 11:40:31;;;;;;;3.10;1.80;;;;;;;;;;4992685;28;20408;-92
2021/08/06 11:42:58;;;;;;;3.90;1.80;;;;;;;;;;4991891;28;20431;-93
2021/08/06 11:45:30;;;;;;;1.90;1.80;;;;;;;;;;4996163;28;20428;-92
2021/08/06 11:48:02;;;;;;;2.75;2.15;;;;;;;;;;4991941;28;20413;-92
2021/08/06 11:50:39;;;;;;;2.28;2.08;;;;;;;;;;4992003;28;20405;-92
2021/08/06 11:53:12;;;;;;;2.20;1.92;;;;;;;;;;4991574;28;20933;-92
2021/08/06 11:55:39;;;;;;;2.65;1.92;;;;;;;;;;4985486;28;20414;-92
2021/08/06 11:58:05;;;;;;;3.30;2.00;;;;;;;;;;4972645;28;20491;-92
2021/08/06 12:00:35;;;;;;;2.42;1.90;;;;;;;;;;4972650;28;20410;-91
2021/08/06 12:03:09;;;;;;;2.58;1.98;;;;;;;;;;4971703;28;20433;-92
2021/08/06 12:05:38;;;;;;;4.10;2.13;;;;;;;;;;4976255;28;20414;-92
2021/08/06 12:08:25;;;;;;;2.17;1.98;;;;;;;;;;4971558;28;20418;-92
2021/08/06 12:10:55;;;;;;;2.08;1.88;;;;;;;;;;4972087;28;20420;-92
2021/08/06 12:13:24;;;;;;;2.67;1.90;;;;;;;;;;4972214;28;20402;-92
2021/08/06 12:16:07;;;;;;;2.97;2.00;;;;;;;;;;4971667;28;20502;-92
2021/08/06 12:18:36;;;;;;;2.13;1.87;;;;;;;;;;4971431;28;20812;-92
2021/08/06 12:21:06;;;;;;;2.40;1.95;;;;;;;;;;4971828;28;20887;-92
2021/08/06 12:23:33;;;;;;;4.50;2.10;;;;;;;;;;4971203;28;20433;-92
2021/08/06 12:26:12;;;;;;;2.50;1.90;;;;;;;;;;4971085;28;20457;-93
2021/08/06 12:28:41;;;;;;;2.03;1.92;;;;;;;;;;4972159;28;20491;-92
2021/08/06 12:31:10;;;;;;;2.00;1.80;;;;;;;;;;4967439;28;20414;-92
2021/08/06 12:33:39;;;;;;;2.28;2.05;;;;;;;;;;4971134;28;20461;-92
2021/08/06 12:36:11;;;;;;;2.03;1.75;;;;;;;;;;4971358;28;20406;-92
2021/08/06 12:38:39;;;;;;;2.10;2.00;;;;;;;;;;4967520;28;20421;-92
2021/08/06 12:41:06;;;;;;;2.97;2.20;;;;;;;;;;4971118;28;20473;-92
2021/08/06 12:43:33;;;;;;;4.10;1.83;;;;;;;;;;4971115;28;20430;-92
2021/08/06 12:46:19;;;;;;;2.10;1.90;;;;;;;;;;4970532;28;20469;-93
2021/08/06 12:49:09;;;;;;;2.70;2.10;;;;;;;;;;4967837;28;20420;-92
2021/08/06 12:51:38;;;;;;;2.30;1.90;;;;;;;;;;4971258;28;20407;-92
2021/08/06 12:54:05;;;;;;;4.10;2.10;;;;;;;;;;4974099;28;20909;-92
2021/08/06 12:56:54;;;;;;;2.23;2.10;;;;;;;;;;4970598;28;20428;-93
2021/08/06 12:59:23;;;;;;;3.67;2.00;;;;;;;;;;4971161;28;20525;-92
2021/08/06 13:01:50;;;;;;;2.80;1.95;;;;;;;;;;4970426;28;20433;-91
2021/08/06 13:04:33;;;;;;;2.78;2.20;;;;;;;;;;4971968;28;20422;-92
2021/08/06 13:07:02;;;;;;;2.42;1.80;;;;;;;;;;4969936;28;20426;-92
2021/08/06 13:09:47;;;;;;;2.40;2.05;;;;;;;;;;4970675;28;20403;-92
2021/08/06 13:12:15;;;;;;;2.50;1.92;;;;;;;;;;4970304;28;20418;-92
2021/08/06 13:14:44;;;;;;;2.45;1.77;;;;;;;;;;4970248;28;20417;-92
2021/08/06 13:17:13;;;;;;;3.63;2.05;;;;;;;;;;4966997;28;20414;-92
2021/08/06 13:19:41;;;;;;;2.50;1.92;;;;;;;;;;4970030;28;20422;-92
2021/08/06 13:22:12;;;;;;;1.95;1.73;;;;;;;;;;4970520;28;20938;-92
2021/08/06 13:24:40;;;;;;;2.42;1.70;;;;;;;;;;4966252;28;20415;-92
2021/08/06 13:27:07;;;;;;;2.08;1.70;;;;;;;;;;4973780;28;20413;-92
2021/08/06 13:29:34;;;;;;;2.85;2.05;;;;;;;;;;4952687;28;20418;-91
2021/08/06 13:32:03;;;;;;;2.30;1.85;;;;;;;;;;4969506;28;20406;-93
2021/08/06 13:34:30;;;;;;;2.22;1.80;;;;;;;;;;4972318;28;20410;-92
2021/08/06 13:36:59;;;;;;;2.60;1.75;;;;;;;;;;4973405;28;20893;-93
2021/08/06 13:39:26;;;;;;;3.92;1.90;;;;;;;;;;4987622;28;20412;-93
2021/08/06 13:41:53;;;;;;;2.50;1.83;;;;;;;;;;4986441;28;20408;-92
2021/08/06 13:44:19;;;;;;;2.45;2.10;;;;;;;;;;4988272;28;20544;-92
2021/08/06 13:46:47;;;;;;;2.20;1.90;;;;;;;;;;4982275;28;20413;-93
2021/08/06 13:49:13;;;;;;;2.80;1.80;;;;;;;;;;4988461;28;20916;-93
2021/08/06 13:51:41;;;;;;;2.13;1.90;;;;;;;;;;4980995;28;20467;-92
2021/08/06 13:54:10;;;;;;;1.80;1.70;;;;;;;;;;4985221;28;20410;-92
2021/08/06 13:56:37;;;;;;;2.50;1.80;;;;;;;;;;4986785;28;20416;-92
2021/08/06 13:59:04;;;;;;;1.98;1.70;;;;;;;;;;4988548;28;20424;-92
2021/08/06 14:01:31;;;;;;;1.88;1.63;;;;;;;;;;4984733;28;20809;-93
2021/08/06 14:03:58;;;;;;;1.77;1.67;;;;;;;;;;4987719;28;20428;-93
2021/08/06 14:06:25;;;;;;;1.90;1.70;;;;;;;;;;4988685;28;20416;-92
2021/08/06 14:08:52;;;;;;;1.88;1.77;;;;;;;;;;4987821;28;20453;-91
2021/08/06 14:11:21;;;;;;;2.10;1.90;;;;;;;;;;4988363;28;20412;-92
2021/08/06 14:13:48;;;;;;;3.05;1.85;;;;;;;;;;4987401;28;20429;-92
2021/08/06 14:16:14;;;;;;;2.28;1.83;;;;;;;;;;4967574;28;20797;-92
2021/08/06 14:18:42;;;;;;;2.17;1.80;;;;;;;;;;4987755;28;20416;-92
2021/08/06 14:21:09;;;;;;;2.78;1.88;;;;;;;;;;4987606;28;20423;-92
2021/08/06 14:23:36;;;;;;;3.10;1.90;;;;;;;;;;4970517;28;20428;-92
2021/08/06 14:26:05;;;;;;;2.22;1.80;;;;;;;;;;4986562;28;20473;-92
2021/08/06 14:28:34;;;;;;;3.03;2.00;;;;;;;;;;4987602;28;20414;-92
2021/08/06 14:31:01;;;;;;;2.97;2.00;;;;;;;;;;4987235;28;20503;-92
2021/08/06 14:33:28;;;;;;;2.07;1.83;;;;;;;;;;4979301;28;20434;-92
2021/08/06 14:35:55;;;;;;;2.53;1.90;;;;;;;;;;4986954;28;20416;-92
2021/08/06 14:38:22;;;;;;;2.83;1.80;;;;;;;;;;4987453;28;20810;-92
2021/08/06 14:40:49;;;;;;;2.38;1.80;;;;;;;;;;4986970;28;20404;-92
2021/08/06 14:43:17;;;;;;;3.63;2.20;;;;;;;;;;4987195;28;20424;-92
2021/08/06 14:45:45;;;;;;;2.47;1.87;;;;;;;;;;4988001;28;20834;-92
2021/08/06 14:48:12;;;;;;;4.63;2.10;;;;;;;;;;4980742;28;20419;-92
2021/08/06 14:50:39;;;;;;;3.60;1.95;;;;;;;;;;4992333;28;20417;-93
2021/08/06 14:53:06;;;;;;;4.50;1.80;;;;;;;;;;4991529;28;20916;-92
2021/08/06 14:55:33;;;;;;;4.00;1.87;;;;;;;;;;4991747;28;20430;-92
2021/08/06 14:58:02;;;;;;;2.80;1.90;;;;;;;;;;4987007;28;20405;-92